Time;durP1;ratioP1;P1;durP2;ratioP2;P2;SDS_P1;SDS_P2;PMS_P1;PMS_P2;Temp;Humidity;BMP_temperature;BMP_pressure;BME280_temperature;BME280_humidity;BME280_pressure;Samples;Min_cycle;Max_cycle;Signal;HPM_P1;HPM_P2
2022/05/13 00:00:05;;;;;;;9.65;1.73;;;;;;;8.66;100.00;99175.63;5133619;28;20047;-50
2022/05/13 00:02:31;;;;;;;3.97;1.60;;;;;;;8.64;100.00;99177.91;5133266;28;20043;-51
2022/05/13 00:04:57;;;;;;;7.32;2.50;;;;;;;8.57;100.00;99180.47;5133869;28;20047;-50
2022/05/13 00:07:24;;;;;;;4.20;1.70;;;;;;;8.62;100.00;99182.16;5133443;28;20579;-51
2022/05/13 00:10:00;;;;;;;8.43;1.83;;;;;;;8.60;100.00;99196.16;5133142;28;20097;-52
2022/05/13 00:12:29;;;;;;;4.40;1.40;;;;;;;8.54;100.00;99199.50;5133633;28;20054;-50
2022/05/13 00:14:56;;;;;;;6.95;1.83;;;;;;;8.50;100.00;99202.16;5133140;28;20053;-50
2022/05/13 00:17:24;;;;;;;5.25;1.65;;;;;;;8.50;100.00;99204.88;5133350;28;20047;-50
2022/05/13 00:19:51;;;;;;;7.15;1.73;;;;;;;8.51;100.00;99209.19;5133238;28;20059;-50
2022/05/13 00:22:18;;;;;;;3.40;1.35;;;;;;;8.48;100.00;99210.69;5133238;28;20551;-50
2022/05/13 00:24:45;;;;;;;6.93;2.20;;;;;;;8.55;100.00;99210.06;5133075;28;20047;-50
2022/05/13 00:27:12;;;;;;;5.30;1.40;;;;;;;8.51;100.00;99213.88;5133026;28;20571;-51
2022/05/13 00:29:38;;;;;;;9.43;2.20;;;;;;;8.51;100.00;99213.88;5132675;28;20096;-50
2022/05/13 00:32:06;;;;;;;6.40;2.20;;;;;;;8.45;100.00;99210.59;5133244;28;20047;-50
2022/05/13 00:34:33;;;;;;;8.55;2.10;;;;;;;8.44;100.00;99228.91;5133034;28;20047;-50
2022/05/13 00:36:59;;;;;;;13.35;2.15;;;;;;;8.42;100.00;99211.28;5132882;28;20058;-54
2022/05/13 00:39:25;;;;;;;9.80;1.77;;;;;;;8.41;100.00;99210.50;5133006;27;20055;-50
2022/05/13 00:41:53;;;;;;;7.20;1.90;;;;;;;8.43;100.00;99208.22;5131783;28;20507;-50
2022/05/13 00:44:21;;;;;;;6.15;2.65;;;;;;;8.37;100.00;99214.25;5132819;28;20043;-51
2022/05/13 00:46:48;;;;;;;7.40;1.90;;;;;;;8.38;100.00;99213.13;5132572;28;20056;-50
2022/05/13 00:49:16;;;;;;;7.35;1.98;;;;;;;8.41;100.00;99207.75;5132734;28;20047;-50
2022/05/13 00:51:45;;;;;;;10.18;2.25;;;;;;;8.36;100.00;99204.44;5132639;28;20104;-50
2022/05/13 00:54:14;;;;;;;10.73;1.80;;;;;;;8.37;100.00;99195.13;5132668;28;20422;-52
2022/05/13 00:56:42;;;;;;;8.52;1.95;;;;;;;8.33;100.00;99202.41;5132430;27;20047;-53
2022/05/13 00:59:12;;;;;;;10.65;1.92;;;;;;;8.33;100.00;99197.75;5132972;28;20050;-51
2022/05/13 01:01:39;;;;;;;8.35;2.05;;;;;;;8.33;100.00;99194.22;5132535;27;20051;-51
2022/05/13 01:04:08;;;;;;;7.57;2.33;;;;;;;8.26;100.00;99194.81;5132494;28;20066;-52
2022/05/13 01:06:35;;;;;;;8.07;2.15;;;;;;;8.27;100.00;99184.72;5132547;28;20043;-52
2022/05/13 01:09:03;;;;;;;13.98;2.17;;;;;;;8.25;100.00;99182.31;5132430;27;20047;-51
2022/05/13 01:11:33;;;;;;;6.32;2.22;;;;;;;8.22;100.00;99186.53;5132493;28;20099;-50
2022/05/13 01:14:03;;;;;;;8.48;2.10;;;;;;;8.18;100.00;99172.00;5132568;28;20144;-51
2022/05/13 01:16:29;;;;;;;5.82;1.98;;;;;;;8.18;100.00;99165.72;5132311;28;20058;-50
2022/05/13 01:18:55;;;;;;;3.33;1.45;;;;;;;8.15;100.00;99174.63;5132153;28;20051;-51
2022/05/13 01:21:25;;;;;;;8.48;2.33;;;;;;;8.13;100.00;99171.44;5132257;28;20047;-50
2022/05/13 01:23:54;;;;;;;12.52;1.95;;;;;;;8.15;100.00;99166.44;5131731;28;20047;-50
2022/05/13 01:26:26;;;;;;;18.50;2.85;;;;;;;8.12;100.00;99167.91;5132347;28;20055;-50
2022/05/13 01:28:54;;;;;;;7.05;2.08;;;;;;;8.14;100.00;99176.56;5132198;28;20047;-50
2022/05/13 01:31:25;;;;;;;8.60;2.65;;;;;;;8.12;100.00;99169.84;5132044;28;20085;-52
2022/05/13 01:33:52;;;;;;;6.90;2.28;;;;;;;8.08;100.00;99179.88;5132169;28;20051;-51
2022/05/13 01:36:18;;;;;;;10.05;2.17;;;;;;;8.12;100.00;99153.47;5131704;28;20047;-52
2022/05/13 01:38:45;;;;;;;3.97;1.75;;;;;;;8.08;100.00;99147.91;5132008;28;20046;-51
2022/05/13 01:41:13;;;;;;;7.97;1.75;;;;;;;8.10;100.00;99164.75;5131887;28;20438;-53
2022/05/13 01:43:41;;;;;;;10.10;2.67;;;;;;;8.05;100.00;99164.19;5131990;28;20047;-51
2022/05/13 01:46:07;;;;;;;8.57;1.98;;;;;;;8.02;100.00;99163.75;5131770;28;20051;-52
2022/05/13 01:48:35;;;;;;;6.32;2.08;;;;;;;8.06;100.00;99171.25;5131675;28;20047;-50
2022/05/13 01:51:01;;;;;;;6.95;2.13;;;;;;;8.04;100.00;99168.09;5131554;27;20136;-50
2022/05/13 01:53:27;;;;;;;5.55;1.67;;;;;;;8.05;100.00;99164.19;5131524;28;20066;-51
2022/05/13 01:55:54;;;;;;;4.07;1.70;;;;;;;8.02;100.00;99160.22;5132020;28;20083;-52
2022/05/13 01:58:23;;;;;;;6.90;2.40;;;;;;;7.99;100.00;99150.00;5131603;28;20058;-50
2022/05/13 02:00:51;;;;;;;13.07;2.30;;;;;;;8.08;100.00;99141.66;5131812;28;20051;-50
2022/05/13 02:06:03;;;;;;;6.05;2.30;;;;;;;8.12;100.00;99148.00;5131876;28;20049;-54
2022/05/13 02:08:29;;;;;;;11.73;2.30;;;;;;;8.15;100.00;99163.69;5131645;28;20047;-50
2022/05/13 02:10:55;;;;;;;17.00;3.38;;;;;;;8.19;100.00;99165.38;5131567;28;20112;-51
2022/05/13 02:13:23;;;;;;;7.97;1.95;;;;;;;8.21;100.00;99173.22;5131283;28;20047;-53
2022/05/13 02:15:50;;;;;;;4.47;1.92;;;;;;;8.17;100.00;99180.53;5131195;28;20089;-52
2022/05/13 02:18:16;;;;;;;12.07;2.03;;;;;;;8.19;100.00;99176.28;5131159;28;20055;-52
2022/05/13 02:20:43;;;;;;;7.20;1.88;;;;;;;8.21;100.00;99178.69;5131210;28;20051;-50
2022/05/13 02:23:09;;;;;;;8.68;2.15;;;;;;;8.32;100.00;99178.97;5131473;28;20051;-50
2022/05/13 02:25:35;;;;;;;7.15;2.30;;;;;;;8.28;100.00;99187.06;5131099;28;20053;-50
2022/05/13 02:28:02;;;;;;;11.30;1.92;;;;;;;8.27;100.00;99188.22;5131366;28;20054;-51
2022/05/13 02:30:30;;;;;;;12.40;2.20;;;;;;;8.34;100.00;99187.63;5130977;28;20524;-50
2022/05/13 02:32:56;;;;;;;5.78;1.90;;;;;;;8.37;100.00;99195.13;5131257;28;20058;-50
2022/05/13 02:35:23;;;;;;;8.25;2.25;;;;;;;8.45;100.00;99194.19;5130960;28;20043;-51
2022/05/13 02:37:49;;;;;;;6.97;1.65;;;;;;;8.47;100.00;99205.56;5131191;28;20054;-53
2022/05/13 02:40:17;;;;;;;7.40;1.63;;;;;;;8.50;100.00;99204.88;5130884;28;20058;-50
2022/05/13 02:42:43;;;;;;;9.68;1.92;;;;;;;8.61;100.00;99207.88;5130862;28;20047;-51
2022/05/13 02:45:10;;;;;;;7.90;2.08;;;;;;;8.83;100.00;99209.22;5131259;28;20047;-50
2022/05/13 02:47:37;;;;;;;9.10;2.35;;;;;;;9.36;100.00;99207.00;5130687;28;20502;-50
2022/05/13 02:50:20;;;;;;;5.10;1.55;;;;;;;9.86;100.00;99199.88;5130947;28;20057;-53
2022/05/13 02:52:48;;;;;;;6.38;1.75;;;;;;;9.83;100.00;99124.75;5130617;28;20058;-53
2022/05/13 02:55:14;;;;;;;7.72;1.77;;;;;;;9.65;100.00;99085.25;5131013;28;20043;-53
2022/05/13 02:57:41;;;;;;;10.05;1.67;;;;;;;9.57;100.00;99084.34;5130686;28;20066;-54
2022/05/13 03:00:09;;;;;;;3.65;1.30;;;;;;;9.47;100.00;99098.59;5130910;28;20050;-54
2022/05/13 03:02:36;;;;;;;5.22;1.50;;;;;;;9.46;100.00;99109.88;5130618;27;20078;-53
2022/05/13 03:05:03;;;;;;;3.00;1.77;;;;;;;9.50;100.00;99102.56;5129782;28;20059;-54
2022/05/13 03:07:29;;;;;;;4.15;2.03;;;;;;;9.51;100.00;99104.13;5130617;28;20100;-54
2022/05/13 03:09:55;;;;;;;4.25;1.98;;;;;;;9.52;100.00;99111.19;5130305;28;20050;-54
2022/05/13 03:12:21;;;;;;;6.30;1.70;;;;;;;9.52;100.00;99113.91;5130516;28;20055;-51
2022/05/13 03:14:47;;;;;;;8.00;2.03;;;;;;;9.54;100.00;99137.06;5130653;28;20051;-54
2022/05/13 03:17:14;;;;;;;11.80;1.67;;;;;;;9.63;100.00;99147.81;5130644;28;20069;-51
2022/05/13 03:19:41;;;;;;;9.25;2.28;;;;;;;9.83;100.00;99132.97;5130417;28;20100;-51
2022/05/13 03:22:07;;;;;;;8.38;1.85;;;;;;;10.10;100.00;99100.22;5130697;28;20494;-50
2022/05/13 03:24:34;;;;;;;7.97;1.98;;;;;;;10.22;100.00;99069.13;5130364;28;20051;-51
2022/05/13 03:27:00;;;;;;;9.73;2.38;;;;;;;10.31;100.00;99006.69;5130537;27;20465;-54
2022/05/13 03:29:27;;;;;;;9.18;2.03;;;;;;;10.53;100.00;98958.47;5130414;28;20051;-52
2022/05/13 03:31:54;;;;;;;8.73;1.65;;;;;;;10.64;100.00;98866.22;5130694;28;20062;-52
2022/05/13 03:34:21;;;;;;;12.80;1.38;;;;;;;10.81;100.00;98790.81;5130400;28;20112;-51
2022/05/13 03:36:49;;;;;;;5.82;1.48;;;;;;;10.96;100.00;98720.44;5130570;28;20051;-51
2022/05/13 03:39:15;;;;;;;11.57;2.30;;;;;;;11.02;100.00;98655.84;5130362;28;20476;-53
2022/05/13 03:41:42;;;;;;;8.82;2.10;;;;;;;11.03;100.00;98619.03;5130251;28;20120;-54
2022/05/13 03:44:08;;;;;;;14.93;2.67;;;;;;;11.03;100.00;98591.59;5130566;28;20051;-53
2022/05/13 03:46:35;;;;;;;12.00;2.38;;;;;;;11.00;100.00;98587.66;5130032;28;20047;-52
2022/05/13 03:49:02;;;;;;;5.97;1.73;;;;;;;11.03;100.00;98627.25;5130618;28;20089;-53
2022/05/13 03:51:29;;;;;;;7.75;2.55;;;;;;;10.97;100.00;98626.81;5130289;27;20142;-51
2022/05/13 03:53:56;;;;;;;9.65;2.47;;;;;;;10.96;100.00;98671.06;5130393;28;20048;-54
2022/05/13 03:56:22;;;;;;;2.63;1.40;;;;;;;10.96;100.00;98655.41;5130043;28;20047;-54
2022/05/13 03:58:48;;;;;;;10.05;3.08;;;;;;;11.02;100.00;98642.13;5130125;28;20048;-54
2022/05/13 04:01:14;;;;;;;7.93;1.80;;;;;;;10.99;100.00;98646.41;5130300;28;20059;-54
2022/05/13 04:03:40;;;;;;;8.77;1.85;;;;;;;11.03;100.00;98641.75;5129823;28;20484;-51
2022/05/13 04:08:57;;;;;;;6.93;2.33;;;;;;;11.04;100.00;98576.72;5129788;28;20053;-54
2022/05/13 04:11:24;;;;;;;3.05;1.63;;;;;;;11.15;100.00;98561.09;5129712;28;20565;-54
2022/05/13 04:16:34;;;;;;;7.35;1.77;;;;;;;11.13;100.00;98643.00;5133488;27;20073;-51
2022/05/13 04:19:00;;;;;;;11.68;2.05;;;;;;;11.07;100.00;98595.94;5133186;28;20051;-54
2022/05/13 04:21:29;;;;;;;3.92;1.58;;;;;;;11.12;100.00;98585.75;5133255;28;20051;-53
2022/05/13 04:23:58;;;;;;;5.57;1.70;;;;;;;11.20;100.00;98574.47;5133014;28;20048;-54
2022/05/13 04:26:26;;;;;;;6.03;1.40;;;;;;;11.27;100.00;98585.47;5133021;28;20047;-55
2022/05/13 04:28:54;;;;;;;7.88;1.60;;;;;;;11.39;100.00;98567.88;5133230;28;20051;-55
2022/05/13 04:31:23;;;;;;;5.55;2.15;;;;;;;11.51;100.00;98570.31;5132734;28;20055;-54
2022/05/13 04:33:50;;;;;;;5.15;1.98;;;;;;;11.71;100.00;98534.28;5133227;28;20047;-52
2022/05/13 04:36:17;;;;;;;8.52;1.85;;;;;;;11.96;100.00;98472.00;5133315;28;20055;-54
2022/05/13 04:38:44;;;;;;;9.18;1.70;;;;;;;12.10;100.00;98386.06;5133085;28;20554;-51
2022/05/13 04:43:57;;;;;;;4.72;1.48;;;;;;;13.06;100.00;98235.63;5133088;28;20042;-55
2022/05/13 04:46:24;;;;;;;11.85;1.92;;;;;;;13.47;100.00;98100.06;5132617;28;20050;-54
2022/05/13 04:48:51;;;;;;;4.95;2.20;;;;;;;13.86;100.00;97983.88;5132749;28;20054;-55
2022/05/13 04:51:18;;;;;;;9.68;2.28;;;;;;;14.11;100.00;97898.09;5132530;28;20055;-54
2022/05/13 04:53:45;;;;;;;5.10;1.20;;;;;;;13.99;100.00;97880.16;5132679;28;20051;-54
2022/05/13 04:56:11;;;;;;;3.75;1.63;;;;;;;13.73;100.00;97884.53;5132602;28;20567;-53
2022/05/13 04:58:38;;;;;;;6.53;1.70;;;;;;;13.73;100.00;97925.03;5132252;28;20051;-54
2022/05/13 05:01:08;;;;;;;5.85;1.63;;;;;;;13.51;100.00;97888.78;5132468;28;20051;-54
2022/05/13 05:03:35;;;;;;;10.10;3.40;;;;;;;13.28;100.00;97901.28;5132289;28;20054;-53
2022/05/13 05:06:02;;;;;;;7.28;1.83;;;;;;;13.25;100.00;97967.38;5132347;28;20078;-55
2022/05/13 05:08:30;;;;;;;17.38;3.42;;;;;;;13.14;100.00;97942.72;5132470;28;20052;-56
2022/05/13 05:10:57;;;;;;;6.88;1.92;;;;;;;13.13;100.00;97985.97;5132748;28;20112;-52
2022/05/13 05:13:26;;;;;;;8.93;1.98;;;;;;;13.17;100.00;98005.19;5132410;28;20051;-54
2022/05/13 05:15:52;;;;;;;6.30;2.35;;;;;;;13.48;100.00;97989.50;5132305;28;20043;-55
2022/05/13 05:18:19;;;;;;;11.32;2.33;;;;;;;13.96;100.00;97935.31;5132140;28;20077;-55
2022/05/13 05:20:46;;;;;;;9.05;2.22;;;;;;;14.35;100.00;97890.59;5132130;28;20051;-54
2022/05/13 05:23:13;;;;;;;12.02;2.20;;;;;;;14.32;100.00;97828.78;5132603;28;20414;-56
2022/05/13 05:25:39;;;;;;;10.77;2.42;;;;;;;14.33;100.00;97827.59;5132275;28;20055;-56
2022/05/13 05:28:06;;;;;;;8.18;2.20;;;;;;;14.41;100.00;97853.06;5131718;27;20055;-53
2022/05/13 05:30:32;;;;;;;8.82;1.80;;;;;;;14.52;100.00;97812.28;5132036;28;20051;-57
2022/05/13 05:32:58;;;;;;;4.78;1.50;;;;;;;14.62;100.00;97805.00;5132047;28;20047;-57
2022/05/13 05:35:25;;;;;;;13.05;3.40;;;;;;;14.88;100.00;97817.09;5131884;28;20047;-50
2022/05/13 05:37:52;;;;;;;9.95;1.65;;;;;;;15.26;100.00;97808.38;5131529;28;20055;-47
2022/05/13 05:40:18;;;;;;;6.25;1.52;;;;;;;15.77;100.00;97804.03;5131719;28;20055;-47
2022/05/13 05:42:45;;;;;;;6.30;1.52;;;;;;;15.95;100.00;97820.16;5131566;28;20058;-46
2022/05/13 05:45:13;;;;;;;5.00;1.52;;;;;;;16.11;100.00;97837.97;5131639;28;20394;-47
2022/05/13 05:47:40;;;;;;;9.77;3.60;;;;;;;16.25;100.00;97840.34;5130860;28;20051;-56
2022/05/13 05:50:09;;;;;;;5.72;1.77;;;;;;;16.45;100.00;97842.97;5131355;28;20051;-49
2022/05/13 05:52:36;;;;;;;6.80;2.05;;;;;;;16.44;100.00;97864.34;5131952;28;20051;-47
2022/05/13 05:57:57;;;;;;;6.80;1.45;;;;;;;16.50;100.00;97866.59;5131514;28;20085;-61
2022/05/13 06:00:24;;;;;;;9.75;3.00;;;;;;;16.44;100.00;97875.41;5131472;28;20449;-61
2022/05/13 06:02:50;;;;;;;6.18;2.30;;;;;;;16.80;100.00;97877.25;5131493;27;20047;-61
2022/05/13 06:05:16;;;;;;;7.03;2.00;;;;;;;17.20;100.00;97885.22;5131236;28;20410;-61
2022/05/13 06:07:45;;;;;;;6.80;1.98;;;;;;;17.95;100.00;97934.81;5131615;28;20051;-59
2022/05/13 06:10:12;;;;;;;5.28;1.63;;;;;;;18.60;100.00;97967.59;5131290;28;20093;-61
2022/05/13 06:12:38;;;;;;;14.65;2.40;;;;;;;19.18;100.00;98008.06;5131638;28;20047;-57
2022/05/13 06:15:05;;;;;;;7.75;2.42;;;;;;;19.84;100.00;98078.38;5131034;28;20047;-55
2022/05/13 06:17:31;;;;;;;5.47;2.30;;;;;;;20.27;100.00;98126.09;5131152;28;20047;-57
2022/05/13 06:19:57;;;;;;;8.55;2.70;;;;;;;20.80;100.00;98106.53;5131091;28;20055;-62
2022/05/13 06:22:23;;;;;;;15.23;3.92;;;;;;;21.57;100.00;98148.38;5130855;28;20043;-62
2022/05/13 06:24:50;;;;;;;15.18;3.90;;;;;;;21.96;100.00;98196.88;5130744;28;20097;-62
2022/05/13 06:27:16;;;;;;;11.90;3.65;;;;;;;22.44;100.00;98213.91;5130731;28;20530;-62
2022/05/13 06:29:42;;;;;;;33.33;7.20;;;;;;;22.71;100.00;98257.00;5130875;28;20418;-62
2022/05/13 06:32:09;;;;;;;7.07;2.33;;;;;;;22.75;100.00;98280.72;5130935;28;20476;-62
2022/05/13 06:34:35;;;;;;;8.55;2.33;;;;;;;22.00;100.00;98261.69;5131002;28;20059;-56
2022/05/13 06:37:02;;;;;;;4.82;2.15;;;;;;;21.75;100.00;98226.47;5130774;28;20530;-54
2022/05/13 06:39:28;;;;;;;6.18;3.22;;;;;;;22.54;100.00;98215.44;5129906;27;20062;-57
2022/05/13 06:41:55;;;;;;;11.23;4.43;;;;;;;23.08;100.00;98254.88;5130761;28;20054;-54
2022/05/13 06:44:21;;;;;;;5.38;2.22;;;;;;;23.43;100.00;98285.19;5130554;28;20055;-56
2022/05/13 06:46:47;;;;;;;8.50;2.55;;;;;;;23.64;100.00;98303.72;5130617;28;20047;-58
2022/05/13 06:49:14;;;;;;;6.68;2.42;;;;;;;23.66;100.00;98306.06;5130747;28;20047;-60
2022/05/13 06:51:40;;;;;;;6.78;2.25;;;;;;;23.73;100.00;98305.75;5130415;28;20055;-59
2022/05/13 06:54:09;;;;;;;5.03;2.25;;;;;;;23.63;100.00;98301.41;5130496;28;20047;-58
2022/05/13 06:56:39;;;;;;;7.10;2.08;;;;;;;23.85;100.00;98298.34;5130259;28;20047;-61
2022/05/13 06:59:06;;;;;;;11.48;3.50;;;;;;;23.87;100.00;98281.88;5130924;28;20051;-56
2022/05/13 07:01:32;;;;;;;8.00;2.28;;;;;;;23.96;100.00;98321.00;5130694;28;20051;-59
2022/05/13 07:03:59;;;;;;;7.53;1.73;;;;;;;24.00;100.00;98341.19;5130420;28;20047;-60
2022/05/13 07:06:25;;;;;;;7.35;2.70;;;;;;;24.21;100.00;98325.31;5131010;28;20047;-57
2022/05/13 07:08:51;;;;;;;8.32;2.53;;;;;;;24.25;100.00;98339.91;5130487;28;20411;-58
2022/05/13 07:11:18;;;;;;;6.00;2.10;;;;;;;24.23;100.00;98331.22;5130681;28;20050;-58
2022/05/13 07:13:45;;;;;;;5.28;1.90;;;;;;;24.56;100.00;98342.38;5130282;28;20047;-57
2022/05/13 07:16:12;;;;;;;7.22;2.67;;;;;;;24.97;100.00;98350.25;5130382;28;20047;-58
2022/05/13 07:18:40;;;;;;;10.43;2.78;;;;;;;24.90;100.00;98354.19;5130332;28;20051;-61
2022/05/13 07:21:07;;;;;;;10.15;2.70;;;;;;;24.24;100.00;98334.81;5130576;28;20533;-57
2022/05/13 07:23:33;;;;;;;7.28;1.60;;;;;;;23.80;100.00;98310.97;5130170;28;20055;-57
2022/05/13 07:26:00;;;;;;;6.68;1.60;;;;;;;24.12;100.00;98309.34;5130304;28;20047;-57
2022/05/13 07:28:27;;;;;;;6.60;2.35;;;;;;;24.37;100.00;98302.47;5130194;28;20430;-57
2022/05/13 07:30:53;;;;;;;4.50;2.95;;;;;;;24.06;100.00;98313.28;5130192;28;20451;-57
2022/05/13 07:33:21;;;;;;;4.65;2.20;;;;;;;24.34;100.00;98300.63;5130371;28;20081;-58
2022/05/13 07:35:48;;;;;;;5.32;2.10;;;;;;;24.77;100.00;98314.47;5130329;28;20522;-58
2022/05/13 07:38:14;;;;;;;7.68;1.83;;;;;;;24.34;100.00;98353.84;5130415;28;20043;-59
2022/05/13 07:43:25;;;;;;;5.95;2.13;;;;;;;24.10;100.00;98311.09;5130038;28;20105;-61
2022/05/13 07:45:51;;;;;;;10.05;2.97;;;;;;;24.54;100.00;98328.03;5129806;28;20099;-58
2022/05/13 07:48:18;;;;;;;8.27;3.03;;;;;;;24.80;100.00;98317.06;5129627;28;20498;-57
2022/05/13 07:50:44;;;;;;;8.65;2.20;;;;;;;23.48;100.00;98334.88;5131863;27;20066;-55
2022/05/13 07:53:11;;;;;;;9.90;2.38;;;;;;;22.53;100.00;98324.84;5133618;28;20062;-55
2022/05/13 07:55:37;;;;;;;2.83;1.30;;;;;;;22.17;100.00;98298.47;5133348;28;20043;-60
2022/05/13 07:58:03;;;;;;;7.97;3.20;;;;;;;22.19;100.00;98284.84;5133297;28;20430;-59
2022/05/13 08:00:32;;;;;;;5.93;1.65;;;;;;;22.34;100.00;98254.25;5133560;28;20055;-56
2022/05/13 08:03:01;;;;;;;7.50;2.08;;;;;;;22.62;100.00;98285.72;5133521;28;20359;-57
2022/05/13 08:05:29;;;;;;;8.73;2.92;;;;;;;21.69;100.00;98275.72;5133192;28;20043;-59
2022/05/13 08:08:01;;;;;;;9.43;1.85;;;;;;;21.40;100.00;98292.09;5133044;28;20051;-56
2022/05/13 08:10:27;;;;;;;10.73;1.95;;;;;;;21.20;100.00;98245.06;5133145;28;20498;-57
2022/05/13 08:12:54;;;;;;;5.03;2.13;;;;;;;21.21;100.00;98244.59;5132977;28;20104;-57
2022/05/13 08:15:20;;;;;;;9.00;2.80;;;;;;;21.91;100.00;98216.25;5133085;28;20418;-54
2022/05/13 08:17:46;;;;;;;5.63;2.15;;;;;;;21.68;100.00;98267.84;5132992;28;20175;-57
2022/05/13 08:20:12;;;;;;;8.70;2.33;;;;;;;21.04;100.00;98232.91;5132825;28;20051;-59
2022/05/13 08:22:38;;;;;;;9.82;2.42;;;;;;;21.39;100.00;98243.88;5132743;28;20505;-59
2022/05/13 08:25:07;;;;;;;9.40;2.45;;;;;;;21.61;100.00;98252.16;5133035;28;20438;-54
2022/05/13 08:27:34;;;;;;;8.77;3.53;;;;;;;22.31;100.00;98266.34;5133065;28;20043;-60
2022/05/13 08:30:01;;;;;;;5.80;2.05;;;;;;;22.13;100.00;98294.25;5132503;28;20047;-59
2022/05/13 08:32:27;;;;;;;7.75;4.40;;;;;;;21.77;100.00;98253.91;5132912;28;20055;-59
2022/05/13 08:34:54;;;;;;;5.93;2.80;;;;;;;22.36;100.00;98242.59;5132731;28;20509;-63
2022/05/13 08:37:20;;;;;;;3.38;1.40;;;;;;;22.53;100.00;98275.34;5132781;28;20054;-60
2022/05/13 08:39:46;;;;;;;10.65;2.85;;;;;;;21.56;100.00;98270.28;5132638;28;20449;-64
2022/05/13 08:42:22;;;;;;;9.00;2.00;;;;;;;21.08;100.00;98246.72;5132562;28;20058;-62
2022/05/13 08:44:50;;;;;;;5.63;1.77;;;;;;;21.73;100.00;98219.81;5132443;28;20050;-59
2022/05/13 08:47:21;;;;;;;9.90;2.35;;;;;;;21.99;100.00;98231.44;5132523;28;20047;-62
2022/05/13 08:49:52;;;;;;;7.97;2.75;;;;;;;22.30;100.00;98251.63;5132358;28;20054;-60
2022/05/13 08:55:19;;;;;;;7.45;1.50;;;;;;;21.66;100.00;98243.22;5132393;28;20062;-54
2022/05/13 08:57:49;;;;;;;3.80;0.97;;;;;;;21.86;100.00;98245.56;5132355;28;20047;-57
2022/05/13 09:00:24;;;;;;;7.10;2.20;;;;;;;21.64;100.00;98242.09;5132518;28;20096;-55
2022/05/13 09:03:00;;;;;;;6.93;3.40;;;;;;;22.35;100.00;98233.47;5131246;27;20047;-53
2022/05/13 09:05:29;;;;;;;12.07;3.83;;;;;;;22.28;100.00;98286.84;5132624;28;20090;-57
2022/05/13 09:07:56;;;;;;;10.20;2.17;;;;;;;22.01;100.00;98254.06;5132331;28;20406;-57
2022/05/13 09:10:23;;;;;;;10.88;2.88;;;;;;;21.83;100.00;98236.09;5132217;28;20051;-57
2022/05/13 09:12:56;;;;;;;7.20;2.45;;;;;;;21.66;100.00;98218.09;5132310;27;20627;-55
2022/05/13 09:15:29;;;;;;;9.50;1.90;;;;;;;21.85;100.00;98222.44;5132200;28;20047;-56
2022/05/13 09:18:04;;;;;;;4.72;1.75;;;;;;;22.25;100.00;98255.03;5132227;28;20287;-57
2022/05/13 09:20:38;;;;;;;9.07;2.58;;;;;;;21.92;100.00;98237.31;5132236;28;20112;-58
2022/05/13 09:23:08;;;;;;;;;;;;;;;21.30;100.00;98255.78;5132302;28;20055;-52
2022/05/13 09:25:47;;;;;;;5.18;1.90;;;;;;;20.54;100.00;98229.25;5132040;28;20404;-57
2022/05/13 09:28:15;;;;;;;10.70;2.20;;;;;;;21.04;100.00;98190.34;5132083;28;20047;-58
2022/05/13 09:30:44;;;;;;;11.50;2.03;;;;;;;21.07;100.00;98245.94;5131716;28;20051;-56
2022/05/13 09:33:23;;;;;;;7.35;2.10;;;;;;;20.91;100.00;98218.31;5131733;28;20066;-57
2022/05/13 09:35:51;;;;;;;6.45;1.92;;;;;;;20.72;100.00;98200.72;5131972;28;20605;-55
2022/05/13 09:38:21;;;;;;;7.70;2.80;;;;;;;20.77;100.00;98183.44;5131982;28;20422;-54
2022/05/13 09:40:59;;;;;;;8.75;2.20;;;;;;;21.50;100.00;98191.25;5132070;28;20380;-57
2022/05/13 09:43:38;;;;;;;4.97;1.75;;;;;;;21.51;100.00;98237.44;5131462;28;20051;-56
2022/05/13 09:46:07;;;;;;;3.80;1.45;;;;;;;21.55;100.00;98218.53;5131474;28;20099;-57
2022/05/13 09:48:36;;;;;;;4.57;1.92;;;;;;;21.88;100.00;98237.47;5131641;28;20047;-57
2022/05/13 09:51:22;;;;;;;5.78;2.40;;;;;;;22.13;100.00;98236.41;5131464;28;20055;-56
2022/05/13 09:54:01;;;;;;;12.65;3.08;;;;;;;22.31;100.00;98224.47;5131427;28;20047;-58
2022/05/13 09:56:35;;;;;;;7.90;2.17;;;;;;;22.40;100.00;98238.44;5131242;28;20092;-56
2022/05/13 09:59:06;;;;;;;8.43;2.60;;;;;;;22.15;100.00;98258.25;5131645;28;20055;-55
2022/05/13 10:01:32;;;;;;;21.38;2.83;;;;;;;21.81;100.00;98246.16;5131059;28;20149;-55
2022/05/13 10:04:08;;;;;;;4.90;2.00;;;;;;;21.58;100.00;98255.88;5131217;28;20051;-56
2022/05/13 10:06:36;;;;;;;7.25;2.00;;;;;;;21.48;100.00;98221.63;5131201;28;20047;-57
2022/05/13 10:14:40;;;;;;;5.25;2.22;;;;;;;20.99;100.00;98207.66;5131242;28;20105;-54
2022/05/13 10:17:13;;;;;;;7.38;2.80;;;;;;;21.24;100.00;98167.66;5131082;28;20050;-54
2022/05/13 10:19:45;;;;;;;4.70;1.73;;;;;;;21.31;100.00;98192.44;5131547;28;20147;-53
2022/05/13 10:22:20;;;;;;;5.45;2.25;;;;;;;21.25;100.00;98200.63;5131025;28;20104;-57
2022/05/13 10:24:52;;;;;;;5.68;2.00;;;;;;;20.86;100.00;98221.72;5131174;28;20521;-56
2022/05/13 10:27:26;;;;;;;8.55;3.28;;;;;;;20.50;100.00;98178.47;5130881;28;20051;-54
2022/05/13 10:29:59;;;;;;;12.57;4.03;;;;;;;20.57;100.00;98169.88;5130790;28;20100;-56
2022/05/13 10:32:34;;;;;;;1.15;1.02;;;;;;;20.69;100.00;98184.94;5130777;28;20058;-56
2022/05/13 10:35:04;;;;;;;4.72;1.70;;;;;;;21.02;100.00;98192.81;5130705;28;20061;-56
2022/05/13 10:37:39;;;;;;;5.80;1.90;;;;;;;21.01;100.00;98180.13;5130802;28;20058;-54
2022/05/13 10:40:10;;;;;;;6.72;1.75;;;;;;;20.98;100.00;98179.03;5130606;28;20065;-54
2022/05/13 10:42:41;;;;;;;3.72;1.90;;;;;;;21.04;100.00;98187.56;5130686;28;20047;-57
2022/05/13 10:45:15;;;;;;;10.60;2.03;;;;;;;20.80;100.00;98168.59;5130368;28;20103;-57
2022/05/13 10:47:45;;;;;;;13.45;2.35;;;;;;;20.58;100.00;98170.66;5130787;28;20128;-59
2022/05/13 10:50:17;;;;;;;3.65;1.40;;;;;;;20.27;100.00;98198.44;5130294;28;20051;-57
2022/05/13 10:52:58;;;;;;;11.88;2.95;;;;;;;20.32;100.00;98136.63;5130169;28;20524;-61
2022/05/13 10:55:29;;;;;;;13.48;3.78;;;;;;;;;;5130666;27;20051;-54
2022/05/13 10:58:08;;;;;;;4.43;1.60;;;;;;;20.60;100.00;98165.41;5130564;27;20047;-55
2022/05/13 11:00:43;;;;;;;5.25;1.90;;;;;;;20.47;100.00;98181.41;5130478;28;20051;-57
2022/05/13 11:03:35;;;;;;;11.23;2.00;;;;;;;20.34;100.00;98195.41;5130929;28;20051;-55
2022/05/13 11:06:16;;;;;;;6.95;2.20;;;;;;;20.28;100.00;98161.03;5130519;28;20058;-56
2022/05/13 11:08:52;;;;;;;4.22;1.70;;;;;;;20.31;100.00;98172.03;5130590;28;20073;-56
2022/05/13 11:11:32;;;;;;;2.35;1.30;;;;;;;20.32;100.00;98172.78;5130308;28;20094;-56
2022/05/13 11:14:06;;;;;;;9.43;2.40;;;;;;;20.10;100.00;98131.88;5130117;28;20059;-54
2022/05/13 11:16:47;;;;;;;14.43;4.20;;;;;;;20.01;100.00;98131.03;5130359;28;20073;-57
2022/05/13 11:19:23;;;;;;;13.25;4.05;;;;;;;20.12;100.00;98095.22;5130045;28;20093;-57
2022/05/13 11:21:58;;;;;;;8.18;2.80;;;;;;;20.15;100.00;98080.41;5130293;28;20047;-55
2022/05/13 11:27:30;;;;;;;16.80;1.65;;;;;;;19.78;100.00;98102.44;5133906;28;20433;-54
2022/05/13 11:30:02;;;;;;;126.68;5.30;;;;;;;19.60;100.00;98050.25;5133842;28;20490;-54
2022/05/13 11:32:38;;;;;;;58.05;2.40;;;;;;;19.48;100.00;98045.50;5133721;28;20051;-56
2022/05/13 11:35:17;;;;;;;7.70;2.47;;;;;;;19.37;100.00;98070.13;5133618;28;20043;-54
2022/05/13 11:37:46;;;;;;;11.35;1.70;;;;;;;19.50;100.00;98027.16;5133745;28;20047;-55
2022/05/13 11:40:22;;;;;;;5.30;1.50;;;;;;;19.49;100.00;98086.75;5133674;28;20161;-56
2022/05/13 11:46:22;;;;;;;6.32;1.70;;;;;;;19.44;100.00;98061.53;5133760;28;20076;-54
2022/05/13 11:48:52;;;;;;;6.32;1.73;;;;;;;19.21;100.00;98038.50;5133833;28;20044;-55
2022/05/13 11:51:21;;;;;;;9.50;2.30;;;;;;;18.98;100.00;98058.34;5133277;28;20057;-54
2022/05/13 11:53:51;;;;;;;7.20;1.85;;;;;;;18.75;100.00;98096.38;5134048;28;20062;-55
2022/05/13 11:56:29;;;;;;;13.55;3.00;;;;;;;18.55;100.00;98051.41;5133391;28;20116;-56
2022/05/13 11:58:57;;;;;;;3.90;1.88;;;;;;;18.35;100.00;98063.50;5133322;28;20066;-55
2022/05/13 12:01:52;;;;;;;13.65;2.40;;;;;;;18.30;100.00;98033.56;5133172;28;20047;-55
2022/05/13 12:04:42;;;;;;;;;;;;;;;18.28;100.00;98074.81;5124473;28;20510;-52